• Join FlightAware (Why Join?)
  • Login
  • US Flag 
10:41AM EDT


 

Airport Tracker/Info


-or-


 

Live Flight TrackerFlight Track Log ✈ SWA2937 ✈ 25-Apr-2012 ✈ KMDW - KPHX

Flight Track Log - Related Links

Times and Time Zones

All times are in EDT time to prevent confusion due to time zone crossing. See the SWA2937 flight status page for this flight to view local times or setup timezone preferences in your user account.

Time Position Orientation Groundspeed Altitude Reporting Facility
EDT Latitude Longitude Course Direction KTS MPH feet Rate Location/Type
09:55AM 41.8333 -87.7500 270° West 213 245 2,700  Level Chicago TRACON
09:56AM 41.8333 -87.8333 236° Southwest 241 277 3,100 300 Climbing Chicago TRACON
09:57AM 41.8000 -87.9000 257° West 232 267 3,300 480 Climbing Chicago TRACON
09:58AM 41.7833 -88.0000 267° West 277 319 4,100 1,800 Climbing Chicago TRACON
09:59AM 41.7789 -88.1108 264° West 278 320 7,100 3,180 Climbing Chicago Center
10:00AM 41.7714 -88.2028 265° West 278 320 10,900 2,820 Climbing Chicago Center
10:01AM 41.7642 -88.3144 264° West 278 320 12,800 2,400 Climbing Chicago Center
10:02AM 41.7550 -88.4369 256° West 310 357 15,800 2,820 Climbing Chicago Center
10:03AM 41.7328 -88.5597 255° West 336 387 18,500 2,400 Climbing Chicago Center
10:04AM 41.7067 -88.6936 256° West 349 402 20,600 1,980 Climbing Chicago Center
10:05AM 41.6803 -88.8328 256° West 378 435 22,500 1,860 Climbing Chicago Center
10:06AM 41.6536 -88.9747 255° West 389 448 24,400 1,740 Climbing Chicago Center
10:07AM 41.6269 -89.1111 256° West 403 464 26,000 1,680 Climbing Chicago Center
10:08AM 41.5981 -89.2611 255° West 415 478 27,800 1,620 Climbing Chicago Center
10:09AM 41.5689 -89.4108 256° West 415 478 29,300 1,800 Climbing Chicago Center
10:10AM 41.5372 -89.5747 256° West 415 478 31,400 1,800 Climbing Chicago Center
10:11AM 41.5097 -89.7242 254° West 415 478 33,000 1,620 Climbing Chicago Center
10:12AM 41.4781 -89.8736 256° West 415 478 34,700 1,620 Climbing Chicago Center
10:13AM 41.4503 -90.0175 255° West 415 478 36,300 1,200 Climbing Chicago Center
10:14AM 41.4222 -90.1611 248° West 415 478 37,200 840 Climbing Chicago Center
10:15AM 41.3794 -90.3019 249° West 415 478 38,000 360 Climbing Chicago Center
10:16AM 41.3386 -90.4422 249° West 415 478 38,000  Level Chicago Center
10:17AM 41.2953 -90.5908 248° West 421 484 38,000  Level Chicago Center
10:18AM 41.2542 -90.7253 248° West 421 484 38,000  Level Chicago Center
10:19AM 41.2106 -90.8681 248° West 416 479 38,000  Level Chicago Center
10:20AM 41.1692 -91.0050 248° West 409 471 38,000  Level Chicago Center
10:21AM 41.1275 -91.1444 248° West 409 471 38,000  Level Chicago Center
10:22AM 41.0833 -91.2864 248° West 414 476 38,000  Level Chicago Center
10:23AM 41.0392 -91.4283 248° West 414 476 38,000  Level Chicago Center
10:24AM 40.9969 -91.5647 247° West 414 476 38,000  Level Chicago Center
10:25AM 40.9572 -91.6869 248° West 409 471 38,000  Level Chicago Center
10:26AM 40.9100 -91.8447 247° West 418 481 38,000  Level Chicago Center
10:28AM 40.8178 -92.1328 248° West 401 461 38,000  Level Kansas City Center
10:29AM 40.7747 -92.2714 248° West 406 467 38,000  Level Kansas City Center
10:30AM 40.7353 -92.3983 247° West 411 473 38,000  Level Kansas City Center
10:31AM 40.6917 -92.5339 247° West 416 479 38,000  Level Kansas City Center
10:32AM 40.6481 -92.6717 247° West 416 479 38,000  Level Kansas City Center
10:33AM 40.6044 -92.8094 244° Southwest 416 479 38,000  Level Kansas City Center
10:34AM 40.5542 -92.9472 249° West 411 473 38,000  Level Kansas City Center
10:35AM 40.5122 -93.0900 247° West 417 480 38,000  Level Kansas City Center
10:36AM 40.4678 -93.2244 246° West 417 480 38,000  Level Kansas City Center
10:37AM 40.4214 -93.3642 247° West 417 480 38,000  Level Kansas City Center
10:38AM 40.3728 -93.5147 246° West 417 480 38,000  Level Kansas City Center
10:39AM 40.3258 -93.6514 246° West 417 480 38,000  Level Kansas City Center
10:40AM 40.2789 -93.7908 246° West 417 480 38,000  Level Kansas City Center
10:41AM 40.2317 -93.9272 247° West 422 486 38,000  Level Kansas City Center
10:42AM 40.1864 -94.0686 245° Southwest 422 486 38,000  Level Kansas City Center
10:43AM 40.1389 -94.2019 247° West 416 479 38,000  Level Kansas City Center
10:44AM 40.0933 -94.3406 246° West 416 479 38,000  Level Kansas City Center
10:45AM 40.0519 -94.4600 245° Southwest 416 479 38,000  Level Kansas City Center
10:46AM 40.0039 -94.5953 245° Southwest 421 484 38,000  Level Kansas City Center
10:47AM 39.9494 -94.7442 248° West 416 479 38,000  Level Kansas City Center
10:48AM 39.9075 -94.8819 245° Southwest 416 479 38,000  Level Kansas City Center
10:49AM 39.8656 -95.0006 245° Southwest 416 479 38,000  Level Kansas City Center
10:50AM 39.8128 -95.1489 245° Southwest 411 473 38,000  Level Kansas City Center
10:51AM 39.7661 -95.2808 246° West 411 473 38,000  Level Kansas City Center
10:52AM 39.7192 -95.4150 245° Southwest 416 479 38,000  Level Kansas City Center
10:53AM 39.6744 -95.5386 246° West 421 484 38,000  Level Kansas City Center
10:54AM 39.6231 -95.6861 245° Southwest 421 484 38,000  Level Kansas City Center
10:55AM 39.5739 -95.8225 245° Southwest 421 484 38,000  Level Kansas City Center
10:56AM 39.5308 -95.9428 244° Southwest 421 484 38,000  Level Kansas City Center
10:57AM 39.4789 -96.0789 245° Southwest 421 484 38,000  Level Kansas City Center
10:58AM 39.4269 -96.2256 244° Southwest 421 484 38,000  Level Kansas City Center
10:59AM 39.3769 -96.3586 245° Southwest 421 484 38,000  Level Kansas City Center
11:00AM 39.3333 -96.4808 245° Southwest 421 484 38,000  Level Kansas City Center
11:01AM 39.2853 -96.6136 245° Southwest 421 484 38,000  Level Kansas City Center
11:02AM 39.2283 -96.7675 243° Southwest 426 490 38,000  Level Kansas City Center
11:03AM 39.1756 -96.9025 246° West 426 490 38,000  Level Kansas City Center
11:04AM 39.1336 -97.0242 243° Southwest 419 482 38,000  Level Kansas City Center
11:05AM 39.0786 -97.1614 245° Southwest 419 482 38,000  Level Kansas City Center
11:06AM 39.0272 -97.3039 243° Southwest 419 482 38,000  Level Kansas City Center
11:07AM 38.9739 -97.4406 245° Southwest 419 482 38,000  Level Kansas City Center
11:08AM 38.9292 -97.5617 244° Southwest 419 482 38,000  Level Kansas City Center
11:09AM 38.8778 -97.6956 243° Southwest 419 482 38,000  Level Kansas City Center
11:10AM 38.8194 -97.8447 245° Southwest 419 482 38,000  Level Kansas City Center
11:11AM 38.7700 -97.9783 243° Southwest 419 482 38,000  Level Kansas City Center
11:12AM 38.7181 -98.1089 244° Southwest 419 482 38,000  Level Kansas City Center
11:13AM 38.6681 -98.2422 243° Southwest 419 482 38,000  Level Kansas City Center
11:14AM 38.6161 -98.3722 243° Southwest 419 482 38,000  Level Kansas City Center
11:15AM 38.5639 -98.5025 244° Southwest 419 482 38,000  Level Kansas City Center
11:16AM 38.5133 -98.6350 243° Southwest 419 482 38,000  Level Kansas City Center
11:17AM 38.4608 -98.7672 243° Southwest 419 482 38,000  Level Kansas City Center
11:18AM 38.4081 -98.8967 244° Southwest 419 482 38,000  Level Kansas City Center
11:19AM 38.3575 -99.0261 244° Southwest 419 482 38,000  Level Kansas City Center
11:20AM 38.3064 -99.1581 242° Southwest 419 482 38,000  Level Kansas City Center
11:21AM 38.2536 -99.2842 242° Southwest 419 482 38,000  Level Kansas City Center
11:22AM 38.2006 -99.4103 243° Southwest 419 482 38,000  Level Kansas City Center
11:23AM 38.1514 -99.5339 242° Southwest 408 470 38,000  Level Kansas City Center
11:24AM 38.1050 -99.6469 242° Southwest 403 464 38,000  Level Kansas City Center
11:25AM 38.0467 -99.7853 243° Southwest 403 464 38,000  Level Kansas City Center
11:26AM 37.9975 -99.9083 241° Southwest 403 464 38,000  Level Kansas City Center
11:27AM 37.9436 -100.0336 243° Southwest 403 464 38,000  Level Kansas City Center
11:28AM 37.8989 -100.1433 243° Southwest 396 456 38,000  Level Kansas City Center
11:29AM 37.8422 -100.2811 241° Southwest 396 456 38,000  Level Kansas City Center
11:30AM 37.7883 -100.4058 243° Southwest 401 461 38,000  Level Kansas City Center
11:31AM 37.7383 -100.5281 242° Southwest 396 456 38,000  Level Kansas City Center
11:32AM 37.6908 -100.6397 242° Southwest 396 456 38,000  Level Kansas City Center
11:33AM 37.6386 -100.7639 240° Southwest 395 455 38,000  Level Kansas City Center
11:34AM 37.5747 -100.9056 242° Southwest 406 467 38,000  Level Kansas City Center
11:35AM 37.5242 -101.0269 242° Southwest 406 467 38,000  Level Kansas City Center
11:36AM 37.4736 -101.1483 243° Southwest 395 455 38,000  Level Kansas City Center
11:37AM 37.4278 -101.2594 242° Southwest 395 455 38,000  Level Kansas City Center
11:38AM 37.3772 -101.3778 242° Southwest 395 455 38,000  Level Kansas City Center
11:39AM 37.3192 -101.5136 240° Southwest 395 455 38,000  Level Kansas City Center
11:41AM 37.2064 -101.7628 241° Southwest 397 457 38,000  Level Albuquerque Center
11:42AM 37.1461 -101.9000 242° Southwest 409 471 38,000  Level Albuquerque Center
11:43AM 37.0931 -102.0236 241° Southwest 409 471 38,000  Level Albuquerque Center
11:44AM 37.0400 -102.1444 241° Southwest 409 471 38,000  Level Albuquerque Center
11:45AM 36.9906 -102.2569 240° Southwest 415 478 38,000  Level Albuquerque Center
11:46AM 36.9294 -102.3883 242° Southwest 410 472 38,000  Level Albuquerque Center
11:47AM 36.8761 -102.5139 242° Southwest 410 472 38,000  Level Albuquerque Center
11:48AM 36.8247 -102.6339 240° Southwest 405 466 38,000  Level Albuquerque Center
11:49AM 36.7689 -102.7564 241° Southwest 405 466 38,000  Level Albuquerque Center
11:50AM 36.7208 -102.8631 240° Southwest 410 472 38,000  Level Albuquerque Center
11:51AM 36.6647 -102.9853 241° Southwest 410 472 38,000  Level Albuquerque Center
11:52AM 36.6050 -103.1181 240° Southwest 410 472 38,000  Level Albuquerque Center
11:53AM 36.5544 -103.2267 241° Southwest 417 480 38,000  Level Albuquerque Center
11:54AM 36.5003 -103.3486 240° Southwest 411 473 38,000  Level Albuquerque Center
11:55AM 36.4397 -103.4781 242° Southwest 411 473 38,000  Level Albuquerque Center
11:56AM 36.3872 -103.5994 240° Southwest 406 467 38,000  Level Albuquerque Center
11:57AM 36.3325 -103.7181 240° Southwest 406 467 38,000  Level Albuquerque Center
11:58AM 36.2775 -103.8339 239° Southwest 406 467 38,000  Level Albuquerque Center
11:59AM 36.2206 -103.9525 240° Southwest 406 467 38,000  Level Albuquerque Center
12:00PM 36.1653 -104.0706 240° Southwest 406 467 38,000  Level Albuquerque Center
12:01PM 36.1100 -104.1886 240° Southwest 406 467 38,000  Level Albuquerque Center
12:02PM 36.0547 -104.3064 240° Southwest 406 467 38,000  Level Albuquerque Center
12:03PM 35.9992 -104.4242 240° Southwest 406 467 38,000  Level Albuquerque Center
12:04PM 35.9436 -104.5417 240° Southwest 406 467 38,000  Level Albuquerque Center
12:05PM 35.8900 -104.6564 239° Southwest 406 467 38,000  Level Albuquerque Center
12:06PM 35.8342 -104.7708 239° Southwest 401 461 38,000  Level Albuquerque Center
12:07PM 35.7781 -104.8881 239° Southwest 401 461 38,000  Level Albuquerque Center
12:08PM 35.7281 -104.9892 240° Southwest 401 461 38,000  Level Albuquerque Center
12:09PM 35.6697 -105.1111 255° West 401 461 38,000  Level Albuquerque Center
12:10PM 35.6428 -105.2322 259° West 390 449 38,000  Level Albuquerque Center
12:11PM 35.6203 -105.3758 261° West 385 443 38,000  Level Albuquerque Center
12:12PM 35.6036 -105.5064 256° West 385 443 38,000  Level Albuquerque Center
12:13PM 35.5803 -105.6194 260° West 390 449 38,000  Level Albuquerque Center
12:14PM 35.5611 -105.7525 260° West 395 455 38,000  Level Albuquerque Center
12:15PM 35.5419 -105.8806 258° West 390 449 38,000  Level Albuquerque Center
12:16PM 35.5167 -106.0267 259° West 395 455 38,000  Level Albuquerque Center
12:17PM 35.4969 -106.1519 258° West 390 449 38,000  Level Albuquerque Center
12:18PM 35.4753 -106.2822 259° West 390 449 38,000  Level Albuquerque Center
12:19PM 35.4556 -106.4075 258° West 390 449 38,000  Level Albuquerque Center
12:20PM 35.4336 -106.5378 259° West 390 449 38,000  Level Albuquerque Center
12:21PM 35.4156 -106.6528 257° West 390 449 38,000  Level Albuquerque Center
12:22PM 35.3892 -106.7956 259° West 390 449 38,000  Level Albuquerque Center
12:23PM 35.3689 -106.9206 258° West 390 449 38,000  Level Albuquerque Center
12:24PM 35.3461 -107.0481 259° West 390 449 38,000  Level Albuquerque Center
12:25PM 35.3278 -107.1600 258° West 390 449 38,000 -600 Level Albuquerque Center
12:26PM 35.3028 -107.3000 258° West 385 443 36,900 -1,020 Descending Albuquerque Center
12:27PM 35.2819 -107.4247 258° West 385 443 36,000 -480 Descending Albuquerque Center
12:28PM 35.2589 -107.5519 258° West 385 443 36,000  Level Albuquerque Center
12:29PM 35.2397 -107.6614 258° West 385 443 36,000  Level Albuquerque Center
12:30PM 35.2144 -107.8011 257° West 380 437 36,000  Level Albuquerque Center
12:31PM 35.1908 -107.9253 259° West 380 437 36,000  Level Albuquerque Center
12:32PM 35.1714 -108.0522 257° West 380 437 36,000  Level Albuquerque Center
12:33PM 35.1497 -108.1639 258° West 380 437 36,000  Level Albuquerque Center
12:34PM 35.1281 -108.2881 256° West 380 437 36,000  Level Albuquerque Center
12:35PM 35.0997 -108.4300 260° West 380 437 36,000 -300 Level Albuquerque Center
12:36PM 35.0819 -108.5542 256° West 380 437 35,500 -720 Descending Albuquerque Center
12:37PM 35.0556 -108.6806 257° West 380 437 34,600 -780 Descending Albuquerque Center
12:38PM 35.0311 -108.8069 258° West 380 437 34,000 -300 Descending Albuquerque Center
12:39PM 35.0086 -108.9333 256° West 375 432 34,000  Level Albuquerque Center
12:40PM 34.9819 -109.0597 254° West 380 437 34,000  Level Albuquerque Center
12:41PM 34.9553 -109.1731 247° West 385 443 34,000  Level Albuquerque Center
12:42PM 34.9136 -109.2911 245° Southwest 392 451 34,000  Level Albuquerque Center
12:43PM 34.8636 -109.4242 247° West 392 451 34,000  Level Albuquerque Center
12:44PM 34.8217 -109.5472 244° Southwest 398 458 34,000  Level Albuquerque Center
12:45PM 34.7800 -109.6522 247° West 393 452 34,000  Level Albuquerque Center
12:46PM 34.7381 -109.7722 245° Southwest 393 452 34,000  Level Albuquerque Center
12:47PM 34.6894 -109.8997 247° West 393 452 34,000  Level Albuquerque Center
12:48PM 34.6472 -110.0197 245° Southwest 393 452 34,000  Level Albuquerque Center
12:49PM 34.6050 -110.1292 244° Southwest 393 452 34,000  Level Albuquerque Center
12:50PM 34.5586 -110.2464 246° West 393 452 34,000 -120 Level Albuquerque Center
12:51PM 34.5094 -110.3781 244° Southwest 393 452 33,800 -540 Descending Albuquerque Center
12:52PM 34.4625 -110.4972 247° West 399 459 33,000 -1,260 Descending Albuquerque Center
12:53PM 34.4242 -110.6067 244° Southwest 394 453 31,300 -1,920 Descending Albuquerque Center
12:54PM 34.3792 -110.7206 241° Southwest 389 448 29,200 -1,680 Descending Albuquerque Center
12:55PM 34.3258 -110.8367 226° Southwest 395 455 28,000 -1,320 Descending Albuquerque Center
12:56PM 34.2564 -110.9242 226° Southwest 379 436 26,600 -1,800 Descending Albuquerque Center
12:57PM 34.1914 -111.0067 228° Southwest 367 422 24,500 -2,220 Descending Albuquerque Center
12:58PM 34.1194 -111.1039 225° Southwest 357 411 22,200 -2,100 Descending Albuquerque Center
12:59PM 34.0544 -111.1836 227° Southwest 352 405 20,300 -1,920 Descending Albuquerque Center
01:00PM 33.9911 -111.2658 225° Southwest 346 398 18,400 -1,920 Descending Albuquerque Center
01:01PM 33.9306 -111.3381 228° Southwest 320 368 16,500 -1,440 Descending Albuquerque Center
01:02PM 33.8736 -111.4153 235° Southwest 314 361 15,600 -1,320 Descending Albuquerque Center
01:03PM 33.8333 -111.4833 244° Southwest 289 333 14,100 -1,620 Descending Phoenix TRACON
01:04PM 33.8000 -111.5667 234° Southwest 282 325 12,600 -1,500 Descending Phoenix TRACON
01:05PM 33.7500 -111.6500 239° Southwest 280 322 11,100 -1,320 Descending Phoenix TRACON
01:06PM 33.7167 -111.7167 234° Southwest 277 319 10,000 -600 Descending Phoenix TRACON
01:07PM 33.6667 -111.8000 239° Southwest 271 312 10,000 -360 Level Phoenix TRACON
01:08PM 33.6333 -111.8667 244° Southwest 262 302 9,300 -480 Descending Phoenix TRACON
01:09PM 33.6000 -111.9500 228° Southwest 239 275 9,000 -660 Descending Phoenix TRACON
01:10PM 33.5500 -112.0167 248° West 228 262 8,000 -1,080 Descending Phoenix TRACON
01:11PM 33.5333 -112.0667 270° West 234 269 7,000 -1,260 Descending Phoenix TRACON
01:12PM 33.5333 -112.1500 209° Southwest 250 288 5,700 -1,380 Descending Phoenix TRACON
01:13PM 33.4833 -112.1833 140° Southeast 223 257 4,300 -1,200 Descending Phoenix TRACON
01:14PM 33.4333 -112.1333 90° East 179 206 3,400 -1,080 Descending Phoenix TRACON
01:15PM 33.4333 -112.0833 90° East 163 188 2,200 -1,200 Descending Phoenix TRACON